Latest Weather Observations for Cerberus

IDV60801

Issued at 11:35 pm EST Friday 19 September 2014 (issued every 30 minutes, with the page automatically refreshed every 10 minutes)

About weather observations | Map of weather stations | Latest weather observations for VIC | Other Formats
Station Details ID: 086361 Name: CERBERUS Lat: -38.36 Lon: 145.18 Height: 12.69 m
Data from the previous 72 hours. | See also: Recent months at Cerberus
Date/Time
EST
Temp
°C
App
Temp
°C
Dew
Point
Rel
Hum
%
Delta-T
°C
Wind Press
QNH
hPa
Press
MSL
hPa
Rain
since 9 am
mm
Dir
 
Spd
km/h
Gust
km/h
Spd
kts
Gust
kts
19/11:30pm 10.8 9.0 7.3 79 1.7 W 6 7 3 4 1025.2 1025.2 0.2
19/11:00pm 11.0 8.7 7.3 78 1.8 WSW 9 19 5 10 1025.3 1025.3 0.2
19/10:30pm 11.0 8.2 6.9 76 1.9 WSW 11 17 6 9 1025.5 1025.5 0.0
19/10:00pm 11.0 8.4 6.2 72 2.2 SW 9 15 5 8 1025.5 1025.5 0.0
19/09:30pm 10.5 7.8 5.7 72 2.2 WSW 9 15 5 8 1025.7 1025.7 0.0
19/09:00pm 10.1 7.7 5.1 71 2.2 W 7 11 4 6 1025.4 1025.4 0.0
19/08:30pm 11.1 8.1 6.0 71 2.4 SW 11 20 6 11 1025.3 1025.3 0.0
19/08:00pm 10.7 8.1 6.1 73 2.1 WSW 9 13 5 7 1025.2 1025.2 0.0
19/07:30pm 11.5 8.6 6.6 72 2.3 WSW 11 15 6 8 1025.0 1025.0 0.0
19/07:00pm 11.9 8.7 6.8 71 2.4 WSW 13 20 7 11 1024.7 1024.7 0.0
19/06:30pm 12.2 9.1 7.1 71 2.5 SW 13 20 7 11 1024.4 1024.4 0.0
19/06:00pm 12.3 9.6 7.2 71 2.4 SW 11 20 6 11 1024.3 1024.3 0.0
19/05:30pm 12.6 9.3 6.4 66 2.9 WSW 13 20 7 11 1024.1 1024.1 0.0
19/05:00pm 12.6 9.4 6.9 68 2.7 SW 13 22 7 12 1023.9 1023.9 0.0
19/04:30pm 12.8 9.3 7.0 68 2.8 SW 15 20 8 11 1023.9 1023.9 0.0
19/04:00pm 12.7 8.6 6.3 65 3.0 SW 17 24 9 13 1023.7 1023.7 0.0
19/03:30pm 13.7 9.3 6.6 62 3.4 SW 19 28 10 15 1023.5 1023.5 0.0
19/03:00pm 13.5 9.3 8.4 71 2.5 SSW 20 30 11 16 1023.5 1023.5 0.0
19/02:30pm 13.1 10.1 7.5 69 2.7 SSW 13 19 7 10 1023.7 1023.7 0.0
19/02:00pm 13.6 9.4 7.6 67 2.9 SSW 19 26 10 14 1023.6 1023.6 0.0
19/01:30pm 13.5 10.7 8.6 72 2.5 WSW 13 19 7 10 1023.8 1023.8 0.0
19/01:00pm 13.1 9.4 8.0 71 2.5 WSW 17 26 9 14 1024.1 1024.1 0.0
19/12:30pm 14.4 10.3 7.7 64 3.3 SW 19 30 10 16 1024.0 1024.0 0.0
19/12:00pm 13.5 9.3 7.5 67 2.9 SW 19 30 10 16 1024.1 1024.1 0.0
19/11:30am 13.6 9.8 7.6 67 2.9 SW 17 24 9 13 1024.3 1024.3 0.0
19/11:00am 14.1 9.4 9.3 73 2.4 SSW 24 39 13 21 1024.3 1024.3 0.0
19/10:30am 12.1 8.9 8.4 78 1.8 SW 15 26 8 14 1024.5 1024.5 0.0
19/10:00am 13.5 9.8 7.9 69 2.8 SW 17 28 9 15 1024.5 1024.5 0.0
19/09:30am 12.8 9.0 7.7 71 2.5 SW 17 26 9 14 1024.6 1024.6 0.0
19/09:00am 12.1 10.5 8.8 80 1.6 WNW 7 13 4 7 1024.6 1024.6 0.2
19/08:30am 11.6 9.2 8.8 83 1.4 W 11 15 6 8 1024.6 1024.6 0.2
19/08:00am 10.6 8.9 8.5 87 1.0 WNW 7 11 4 6 1024.2 1024.2 0.2
19/07:30am 9.9 8.1 8.0 88 0.9 NW 7 13 4 7 1024.1 1024.1 0.2
19/07:00am 9.5 7.2 7.6 88 0.9 WNW 9 15 5 8 1023.9 1023.9 0.2
19/06:30am 9.5 6.9 7.6 88 0.9 WNW 11 17 6 9 1023.6 1023.6 0.2
19/06:00am 9.2 6.9 7.3 88 0.9 WNW 9 15 5 8 1023.4 1023.4 0.2
19/05:30am 8.8 6.0 6.9 88 0.9 WNW 11 15 6 8 1023.3 1023.3 0.2
19/05:00am 8.6 6.5 6.6 87 0.9 WNW 7 13 4 7 1023.2 1023.2 0.2
19/04:30am 8.9 6.9 6.9 87 0.9 WNW 7 13 4 7 1023.1 1023.1 0.2
19/04:00am 9.2 6.8 7.2 87 0.9 WNW 9 15 5 8 1023.1 1023.1 0.0
19/03:30am 9.2 6.8 7.0 86 1.0 WNW 9 15 5 8 1023.1 1023.1 0.0
19/03:00am 9.2 6.8 6.8 85 1.1 WNW 9 15 5 8 1023.1 1023.1 0.0
19/02:30am 8.2 5.9 5.7 84 1.1 NNW 7 9 4 5 1023.4 1023.4 0.0
19/02:00am 8.3 6.1 5.4 82 1.3 NW 6 7 3 4 1023.5 1023.5 0.0
19/01:30am 9.1 6.5 6.0 81 1.4 W 9 13 5 7 1023.7 1023.7 0.0
19/01:00am 8.2 5.7 5.0 80 1.4 NW 7 9 4 5 1024.0 1024.0 0.0
19/12:30am 8.2 5.6 4.4 77 1.7 WNW 7 9 4 5 1024.1 1024.1 0.0
19/12:00am 9.4 6.9 5.0 74 2.0 W 7 11 4 6 1024.2 1024.2 0.0
 
Date/Time
EST
Temp
°C
App
Temp
°C
Dew
Point
Rel
Hum
%
Delta-T
°C
Wind Press
QNH
hPa
Press
MSL
hPa
Rain
since 9 am
mm
Dir
 
Spd
km/h
Gust
km/h
Spd
kts
Gust
kts
18/11:30pm 9.3 6.8 4.5 72 2.1 WNW 7 13 4 7 1024.3 1024.3 0.0
18/11:00pm 9.3 6.6 3.9 69 2.3 WNW 7 9 4 5 1024.5 1024.5 0.0
18/10:30pm 9.6 6.7 4.4 70 2.3 W 9 13 5 7 1024.5 1024.5 0.0
18/10:00pm 9.5 6.5 4.1 69 2.4 W 9 11 5 6 1024.5 1024.5 0.0
18/09:30pm 10.6 6.9 4.3 65 2.8 SW 13 22 7 12 1024.5 1024.5 0.0
18/09:00pm 10.4 7.3 5.4 71 2.3 W 11 17 6 9 1024.4 1024.4 0.0
18/08:30pm 9.6 7.1 3.8 67 2.5 W 6 9 3 5 1024.1 1024.1 0.0
18/08:00pm 10.1 7.5 4.3 67 2.6 W 7 11 4 6 1024.1 1024.1 0.0
18/07:30pm 10.8 6.5 3.4 60 3.2 SW 15 24 8 13 1023.9 1023.9 0.0
18/07:00pm 10.8 7.0 4.0 63 3.0 SW 13 20 7 11 1023.8 1023.8 0.0
18/06:30pm 11.1 6.5 3.9 61 3.2 SW 17 24 9 13 1023.7 1023.7 0.0
18/06:00pm 11.3 7.2 4.5 63 3.1 SW 15 32 8 17 1023.4 1023.4 0.0
18/05:30pm 11.4 6.2 3.7 59 3.4 SW 20 33 11 18 1023.1 1023.1 0.0
18/05:00pm 12.0 7.1 4.0 58 3.6 SW 19 28 10 15 1022.9 1022.9 0.0
18/04:30pm 11.9 7.2 5.1 63 3.1 SW 19 30 10 16 1022.6 1022.6 0.0
18/04:00pm 11.8 7.8 6.5 70 2.5 SW 17 26 9 14 1022.5 1022.5 0.0
18/03:30pm 11.5 7.2 6.8 73 2.2 WSW 19 32 10 17 1022.5 1022.5 0.0
18/03:00pm 12.1 7.7 7.4 73 2.3 SSW 20 32 11 17 1022.4 1022.4 0.0
18/02:30pm 11.3 6.7 6.6 73 2.2 WSW 20 33 11 18 1022.4 1022.4 0.0
18/02:00pm 11.7 6.1 5.6 66 2.8 SW 24 39 13 21 1022.3 1022.3 0.0
18/01:30pm 13.0 8.0 6.4 64 3.1 SW 22 30 12 16 1022.1 1022.1 0.0
18/01:00pm 13.1 8.0 5.8 61 3.4 SW 22 32 12 17 1022.3 1022.3 0.0
18/12:30pm 12.0 8.8 6.7 70 2.5 W 13 17 7 9 1022.4 1022.4 0.0
18/12:00pm 13.4 8.5 6.7 64 3.2 SW 22 33 12 18 1022.4 1022.4 0.0
18/11:30am 12.9 8.4 6.0 63 3.3 SW 19 28 10 15 1022.3 1022.3 0.0
18/11:00am 12.7 7.6 5.8 63 3.2 SW 22 33 12 18 1022.3 1022.3 0.0
18/10:30am 12.1 7.3 5.7 65 3.0 SW 20 32 11 17 1022.3 1022.3 0.0
18/10:00am 12.5 8.5 6.5 67 2.8 SW 17 30 9 16 1022.2 1022.2 0.0
18/09:30am 11.1 7.0 6.3 72 2.2 S 17 30 9 16 1022.1 1022.1 0.0
18/09:00am 10.8 8.6 7.9 82 1.4 W 9 17 5 9 1021.9 1021.9 5.6
18/08:30am 9.5 7.5 6.9 84 1.2 W 7 13 4 7 1021.8 1021.8 5.4
18/08:00am 8.9 4.1 5.8 81 1.4 WSW 20 33 11 18 1021.7 1021.7 5.4
18/07:30am 9.9 7.1 5.3 73 2.1 WSW 9 13 5 7 1021.0 1021.0 5.0
18/07:00am 9.2 5.6 5.0 75 1.9 WSW 13 19 7 10 1020.8 1020.8 5.0
18/06:30am 8.9 6.0 4.5 74 1.9 WSW 9 15 5 8 1020.4 1020.4 5.0
18/06:00am 9.3 4.5 4.5 72 2.1 SW 19 32 10 17 1020.1 1020.1 5.0
18/05:30am 9.1 5.0 4.3 72 2.1 WSW 15 24 8 13 1019.7 1019.7 5.0
18/05:00am 8.7 3.9 4.9 77 1.7 WSW 19 41 10 22 1019.3 1019.3 4.8
18/04:30am 8.9 5.1 3.9 71 2.2 W 13 19 7 10 1019.0 1019.0 4.6
18/04:00am 8.4 5.0 4.0 74 1.9 W 11 17 6 9 1018.8 1018.8 4.6
18/03:30am 8.8 4.3 4.2 73 2.0 W 17 28 9 15 1018.6 1018.6 4.6
18/03:00am 8.7 5.2 5.6 81 1.4 WSW 13 24 7 13 1018.5 1018.5 4.6
18/02:30am 8.1 4.5 5.2 82 1.3 W 13 22 7 12 1018.5 1018.5 4.6
18/02:00am 8.2 5.4 5.1 81 1.4 W 9 15 5 8 1018.6 1018.6 4.6
18/01:30am 8.4 3.7 5.2 80 1.4 WSW 19 30 10 16 1018.8 1018.8 4.6
18/01:00am 9.9 4.5 4.7 70 2.3 SW 22 37 12 20 1018.6 1018.6 4.4
18/12:30am 8.4 6.2 5.5 82 1.3 W 6 7 3 4 1018.7 1018.7 4.4
18/12:00am 8.4 5.3 5.5 82 1.3 W 11 17 6 9 1018.6 1018.6 4.4
 
Date/Time
EST
Temp
°C
App
Temp
°C
Dew
Point
Rel
Hum
%
Delta-T
°C
Wind Press
QNH
hPa
Press
MSL
hPa
Rain
since 9 am
mm
Dir
 
Spd
km/h
Gust
km/h
Spd
kts
Gust
kts
17/11:30pm 8.1 5.4 5.6 84 1.1 W 9 19 5 10 1018.4 1018.4 4.2
17/11:00pm 7.9 4.8 5.4 84 1.1 WNW 11 17 6 9 1018.3 1018.3 4.2
17/10:30pm 8.1 3.8 5.2 82 1.3 W 17 26 9 14 1018.5 1018.5 4.2
17/10:00pm 7.8 4.8 4.2 78 1.6 WNW 9 15 5 8 1018.4 1018.4 4.2
17/09:30pm 8.3 4.2 4.1 75 1.8 W 15 24 8 13 1018.2 1018.2 4.2
17/09:00pm 8.4 3.8 3.8 73 2.0 W 17 26 9 14 1017.8 1017.8 4.2
17/08:30pm 8.7 2.5 4.1 73 2.0 W 26 39 14 21 1017.6 1017.6 4.2
17/08:29pm 8.5 1.9 4.1 74 1.9 W 28 44 15 24 1017.5 1017.5 4.2
17/08:00pm 7.8 5.2 4.2 78 1.6 WNW 7 11 4 6 1017.6 1017.6 4.2
17/07:30pm 8.0 5.1 4.8 80 1.4 WSW 9 15 5 8 1017.5 1017.5 4.2
17/07:00pm 8.0 4.5 5.3 83 1.2 W 13 19 7 10 1017.2 1017.2 4.2
17/06:30pm 7.6 3.5 4.6 81 1.3 W 15 30 8 16 1016.9 1016.9 4.0
17/06:00pm 9.4 5.3 4.4 71 2.2 W 15 20 8 11 1016.6 1016.6 3.0
17/05:30pm 9.5 3.7 4.5 71 2.2 SW 24 41 13 22 1016.1 1016.1 3.0
17/05:00pm 10.8 6.0 4.5 65 2.8 WSW 19 28 10 15 1015.5 1015.5 2.8
17/04:30pm 11.1 4.1 4.1 62 3.1 WSW 30 43 16 23 1015.2 1015.2 2.8
17/04:00pm 11.2 3.9 4.7 64 2.9 WSW 32 67 17 36 1014.8 1014.8 2.8
17/03:46pm 11.9 4.8 3.7 57 3.7 WSW 30 52 16 28 1014.5 1014.5 2.8
17/03:30pm 11.1 4.3 5.2 67 2.7 WSW 30 46 16 25 1014.5 1014.5 2.8
17/03:16pm 11.2 4.5 5.5 68 2.6 WSW 30 50 16 27 1014.1 1014.1 2.8
17/03:00pm 10.4 4.3 6.5 77 1.8 WSW 28 43 15 23 1014.1 1014.1 2.8
17/02:53pm 9.4 2.8 6.1 80 1.5 WSW 30 50 16 27 1014.2 1014.2 2.8
17/02:49pm 9.2 2.2 5.9 80 1.5 WSW 32 50 17 27 1014.2 1014.2 2.8
17/02:30pm 9.7 5.2 7.0 83 1.3 W 20 32 11 17 1014.1 1014.1 2.6
17/02:00pm 9.1 3.0 6.4 83 1.2 WSW 28 43 15 23 1014.0 1014.0 2.4
17/01:31pm 11.3 5.2 6.4 72 2.3 WSW 28 46 15 25 1013.7 1013.7 1.6
17/01:30pm 11.4 4.9 6.5 72 2.3 WSW 30 46 16 25 1013.7 1013.7 1.6
17/01:02pm 13.4 6.2 5.1 57 3.9 WSW 32 57 17 31 1012.8 1012.9 1.6
17/01:00pm 13.5 6.4 5.4 58 3.8 WSW 32 44 17 24 1012.8 1012.9 1.6
17/12:34pm 13.4 5.9 3.2 50 4.6 W 32 52 17 28 1012.6 1012.7 1.6
17/12:30pm 13.4 6.5 4.6 55 4.0 W 30 48 16 26 1012.6 1012.7 1.6
17/12:09pm 12.7 5.9 5.1 60 3.5 W 30 54 16 29 1012.6 1012.7 1.6
17/12:00pm 12.5 5.8 5.4 62 3.3 WSW 30 46 16 25 1012.5 1012.6 1.6
17/11:30am 10.7 5.0 6.5 75 2.0 W 26 43 14 23 1012.8 1012.9 1.6
17/11:00am 8.7 1.6 5.4 80 1.5 WSW 32 56 17 30 1012.9 1013.0 1.6
17/10:55am 9.3 2.6 3.9 69 2.4 WSW 28 56 15 30 1012.8 1012.9 0.6
17/10:53am 12.5 7.1 6.5 67 2.9 W 24 52 13 28 1012.8 1012.9 0.0
17/10:30am 13.3 7.5 8.0 70 2.6 W 28 33 15 18 1012.6 1012.7 0.0
17/10:00am 13.1 7.4 8.2 72 2.4 WNW 28 39 15 21 1012.5 1012.6 0.0
17/09:30am 12.5 7.1 8.0 74 2.2 WNW 26 35 14 19 1012.4 1012.5 0.0
17/09:00am 11.7 6.2 7.6 76 2.0 WNW 26 39 14 21 1012.3 1012.4 0.2
17/08:30am 11.5 6.9 8.2 80 1.6 WNW 22 37 12 20 1012.4 1012.5 0.2
17/08:00am 11.5 7.6 8.7 83 1.4 WNW 19 30 10 16 1012.3 1012.4 0.2
17/07:30am 11.2 8.0 8.6 84 1.3 WNW 15 24 8 13 1012.0 1012.1 0.2
17/07:00am 10.4 7.5 8.2 86 1.1 WNW 13 20 7 11 1011.8 1011.9 0.2
17/06:30am 10.2 8.0 8.0 86 1.1 WNW 9 17 5 9 1011.8 1011.9 0.2
17/06:00am 10.4 7.0 7.8 84 1.3 WNW 15 26 8 14 1011.9 1012.0 0.2
17/05:30am 10.4 6.2 7.6 83 1.3 WNW 19 30 10 16 1011.8 1011.9 0.2
17/05:00am 10.5 6.8 8.1 85 1.2 WNW 17 30 9 16 1011.6 1011.7 0.2
17/04:30am 9.9 6.9 7.7 86 1.1 WNW 13 22 7 12 1011.5 1011.6 0.2
17/04:00am 9.9 6.9 7.7 86 1.1 NW 13 20 7 11 1011.4 1011.5 0.2
17/03:30am 10.1 7.6 8.0 87 1.0 NW 11 19 6 10 1011.5 1011.6 0.2
17/03:00am 10.0 6.7 7.9 87 1.0 NW 15 20 8 11 1011.7 1011.8 0.2
17/02:30am 9.9 6.9 7.8 87 1.0 NW 13 19 7 10 1011.8 1011.9 0.2
17/02:00am 9.7 7.0 7.5 86 1.0 NW 11 17 6 9 1011.9 1012.0 0.2
17/01:30am 10.1 7.5 7.7 85 1.2 NW 11 17 6 9 1012.1 1012.2 0.2
17/01:00am 10.0 7.8 7.8 86 1.1 NW 9 13 5 7 1012.4 1012.5 0.2
17/12:30am 9.2 7.4 7.2 87 0.9 NNW 6 11 3 6 1012.6 1012.7 0.2
17/12:00am 9.1 8.0 6.7 85 1.1 WNW 2 4 1 2 1012.5 1012.6 0.2

Other Formats:

Comma delimited format used in spreadsheet applications
http://www.bom.gov.au/fwo/IDV60801/IDV60801.94898.axf

JavaScript Object Notation format (JSON) in row-major order
http://www.bom.gov.au/fwo/IDV60801/IDV60801.94898.json